sensor_id;sensor_type;location;lat;lon;timestamp;temperature;humidity
40289;DHT22;28991;52.028;5.526;2023-04-24T00:00:40;19.50;50.70
40289;DHT22;28991;52.028;5.526;2023-04-24T00:03:06;19.40;50.70
40289;DHT22;28991;52.028;5.526;2023-04-24T00:05:32;19.50;50.70
40289;DHT22;28991;52.028;5.526;2023-04-24T00:07:58;19.40;50.60
40289;DHT22;28991;52.028;5.526;2023-04-24T00:10:23;19.40;50.70
40289;DHT22;28991;52.028;5.526;2023-04-24T00:12:49;19.40;50.70
40289;DHT22;28991;52.028;5.526;2023-04-24T00:15:15;19.40;50.70
40289;DHT22;28991;52.028;5.526;2023-04-24T00:17:40;19.40;50.70
40289;DHT22;28991;52.028;5.526;2023-04-24T00:20:06;19.40;50.70
40289;DHT22;28991;52.028;5.526;2023-04-24T00:22:32;19.40;50.70
40289;DHT22;28991;52.028;5.526;2023-04-24T00:24:58;19.30;50.60
40289;DHT22;28991;52.028;5.526;2023-04-24T00:27:23;19.40;50.70
40289;DHT22;28991;52.028;5.526;2023-04-24T00:29:49;19.40;50.70
40289;DHT22;28991;52.028;5.526;2023-04-24T00:32:15;19.30;50.70
40289;DHT22;28991;52.028;5.526;2023-04-24T00:34:41;19.60;50.80
40289;DHT22;28991;52.028;5.526;2023-04-24T00:37:07;19.40;50.70
40289;DHT22;28991;52.028;5.526;2023-04-24T00:39:32;19.40;50.70
40289;DHT22;28991;52.028;5.526;2023-04-24T00:41:58;19.40;50.70
40289;DHT22;28991;52.028;5.526;2023-04-24T00:44:24;19.40;50.70
40289;DHT22;28991;52.028;5.526;2023-04-24T00:46:50;19.40;50.70
40289;DHT22;28991;52.028;5.526;2023-04-24T00:49:20;19.70;51.00
40289;DHT22;28991;52.028;5.526;2023-04-24T00:51:46;19.60;50.80
40289;DHT22;28991;52.028;5.526;2023-04-24T00:54:13;19.40;50.70
40289;DHT22;28991;52.028;5.526;2023-04-24T00:56:39;19.40;50.70
40289;DHT22;28991;52.028;5.526;2023-04-24T00:59:05;19.40;50.80
40289;DHT22;28991;52.028;5.526;2023-04-24T01:01:31;19.40;50.70
40289;DHT22;28991;52.028;5.526;2023-04-24T01:03:58;19.40;50.70
40289;DHT22;28991;52.028;5.526;2023-04-24T01:06:27;19.40;50.80
40289;DHT22;28991;52.028;5.526;2023-04-24T01:08:54;19.50;50.80
40289;DHT22;28991;52.028;5.526;2023-04-24T01:11:23;19.40;50.70
40289;DHT22;28991;52.028;5.526;2023-04-24T01:13:49;19.30;50.70
40289;DHT22;28991;52.028;5.526;2023-04-24T01:16:15;19.40;51.30
40289;DHT22;28991;52.028;5.526;2023-04-24T01:18:43;19.40;50.80
40289;DHT22;28991;52.028;5.526;2023-04-24T01:21:09;19.30;50.70
40289;DHT22;28991;52.028;5.526;2023-04-24T01:23:35;19.30;50.70
40289;DHT22;28991;52.028;5.526;2023-04-24T01:26:01;19.40;50.70
40289;DHT22;28991;52.028;5.526;2023-04-24T01:28:26;19.40;50.80
40289;DHT22;28991;52.028;5.526;2023-04-24T01:30:52;19.40;50.80
40289;DHT22;28991;52.028;5.526;2023-04-24T01:33:21;19.40;50.80
40289;DHT22;28991;52.028;5.526;2023-04-24T01:35:47;19.30;50.70
40289;DHT22;28991;52.028;5.526;2023-04-24T01:38:13;19.40;50.70
40289;DHT22;28991;52.028;5.526;2023-04-24T01:40:39;19.30;50.70
40289;DHT22;28991;52.028;5.526;2023-04-24T01:43:05;19.30;50.70
40289;DHT22;28991;52.028;5.526;2023-04-24T01:45:30;19.40;50.80
40289;DHT22;28991;52.028;5.526;2023-04-24T01:47:56;19.40;50.80
40289;DHT22;28991;52.028;5.526;2023-04-24T01:50:22;19.30;50.70
40289;DHT22;28991;52.028;5.526;2023-04-24T01:52:48;19.60;50.90
40289;DHT22;28991;52.028;5.526;2023-04-24T01:55:13;19.40;50.80
40289;DHT22;28991;52.028;5.526;2023-04-24T01:57:39;19.30;50.70
40289;DHT22;28991;52.028;5.526;2023-04-24T02:00:06;19.30;50.70
40289;DHT22;28991;52.028;5.526;2023-04-24T02:02:32;19.40;50.80
40289;DHT22;28991;52.028;5.526;2023-04-24T02:04:58;19.40;50.80
40289;DHT22;28991;52.028;5.526;2023-04-24T02:07:23;19.30;50.70
40289;DHT22;28991;52.028;5.526;2023-04-24T02:09:49;19.30;50.70
40289;DHT22;28991;52.028;5.526;2023-04-24T02:12:15;19.30;50.70
40289;DHT22;28991;52.028;5.526;2023-04-24T02:14:43;19.30;50.80
40289;DHT22;28991;52.028;5.526;2023-04-24T02:17:09;19.40;50.80
40289;DHT22;28991;52.028;5.526;2023-04-24T02:19:34;19.30;50.80
40289;DHT22;28991;52.028;5.526;2023-04-24T02:22:00;19.30;50.70
40289;DHT22;28991;52.028;5.526;2023-04-24T02:24:25;19.30;50.80
40289;DHT22;28991;52.028;5.526;2023-04-24T02:26:51;19.30;50.80
40289;DHT22;28991;52.028;5.526;2023-04-24T02:29:16;19.30;50.70
40289;DHT22;28991;52.028;5.526;2023-04-24T02:31:43;19.30;50.70
40289;DHT22;28991;52.028;5.526;2023-04-24T02:34:08;19.30;50.80
40289;DHT22;28991;52.028;5.526;2023-04-24T02:36:34;19.30;50.80
40289;DHT22;28991;52.028;5.526;2023-04-24T02:38:59;19.30;50.80
40289;DHT22;28991;52.028;5.526;2023-04-24T02:41:26;19.40;50.80
40289;DHT22;28991;52.028;5.526;2023-04-24T02:43:57;19.30;50.80
40289;DHT22;28991;52.028;5.526;2023-04-24T02:46:22;19.40;50.80
40289;DHT22;28991;52.028;5.526;2023-04-24T02:48:48;19.30;50.70
40289;DHT22;28991;52.028;5.526;2023-04-24T02:51:14;19.10;50.70
40289;DHT22;28991;52.028;5.526;2023-04-24T02:53:39;19.30;50.80
40289;DHT22;28991;52.028;5.526;2023-04-24T02:56:05;19.40;50.80
40289;DHT22;28991;52.028;5.526;2023-04-24T02:58:30;19.20;50.70
40289;DHT22;28991;52.028;5.526;2023-04-24T03:00:56;19.70;51.10
40289;DHT22;28991;52.028;5.526;2023-04-24T03:03:22;19.30;50.80
40289;DHT22;28991;52.028;5.526;2023-04-24T03:05:47;19.30;50.80
40289;DHT22;28991;52.028;5.526;2023-04-24T03:08:13;19.20;50.80
40289;DHT22;28991;52.028;5.526;2023-04-24T03:10:39;19.30;50.80
40289;DHT22;28991;52.028;5.526;2023-04-24T03:13:05;19.40;50.80
40289;DHT22;28991;52.028;5.526;2023-04-24T03:15:31;19.50;50.90
40289;DHT22;28991;52.028;5.526;2023-04-24T03:17:56;19.30;50.80
40289;DHT22;28991;52.028;5.526;2023-04-24T03:20:22;19.30;50.80
40289;DHT22;28991;52.028;5.526;2023-04-24T03:22:48;19.30;50.80
40289;DHT22;28991;52.028;5.526;2023-04-24T03:25:13;19.30;50.80
40289;DHT22;28991;52.028;5.526;2023-04-24T03:27:39;19.30;50.80
40289;DHT22;28991;52.028;5.526;2023-04-24T03:30:06;19.30;50.80
40289;DHT22;28991;52.028;5.526;2023-04-24T03:32:32;19.30;50.80
40289;DHT22;28991;52.028;5.526;2023-04-24T03:34:57;19.40;50.90
40289;DHT22;28991;52.028;5.526;2023-04-24T03:37:23;19.30;50.80
40289;DHT22;28991;52.028;5.526;2023-04-24T03:39:48;19.30;50.80
40289;DHT22;28991;52.028;5.526;2023-04-24T03:42:14;19.30;50.90
40289;DHT22;28991;52.028;5.526;2023-04-24T03:44:40;19.20;50.80
40289;DHT22;28991;52.028;5.526;2023-04-24T03:47:05;19.30;50.90
40289;DHT22;28991;52.028;5.526;2023-04-24T03:49:31;19.20;50.80
40289;DHT22;28991;52.028;5.526;2023-04-24T03:51:57;19.30;50.90
40289;DHT22;28991;52.028;5.526;2023-04-24T03:54:22;19.30;50.80
40289;DHT22;28991;52.028;5.526;2023-04-24T03:56:48;19.30;50.90
40289;DHT22;28991;52.028;5.526;2023-04-24T03:59:13;19.20;50.80
40289;DHT22;28991;52.028;5.526;2023-04-24T04:01:39;19.20;50.80
40289;DHT22;28991;52.028;5.526;2023-04-24T04:04:05;19.30;50.90
40289;DHT22;28991;52.028;5.526;2023-04-24T04:06:31;19.20;50.80
40289;DHT22;28991;52.028;5.526;2023-04-24T04:08:57;19.20;50.90
40289;DHT22;28991;52.028;5.526;2023-04-24T04:11:23;19.20;50.80
40289;DHT22;28991;52.028;5.526;2023-04-24T04:13:48;19.10;50.80
40289;DHT22;28991;52.028;5.526;2023-04-24T04:16:14;19.20;50.90
40289;DHT22;28991;52.028;5.526;2023-04-24T04:18:42;19.20;50.80
40289;DHT22;28991;52.028;5.526;2023-04-24T04:21:08;19.20;50.80
40289;DHT22;28991;52.028;5.526;2023-04-24T04:23:33;19.30;50.90
40289;DHT22;28991;52.028;5.526;2023-04-24T04:25:59;19.20;50.90
40289;DHT22;28991;52.028;5.526;2023-04-24T04:28:25;19.20;50.80
40289;DHT22;28991;52.028;5.526;2023-04-24T04:30:50;19.20;50.90
40289;DHT22;28991;52.028;5.526;2023-04-24T04:33:20;19.20;50.90
40289;DHT22;28991;52.028;5.526;2023-04-24T04:35:46;19.20;50.80
40289;DHT22;28991;52.028;5.526;2023-04-24T04:38:14;19.20;50.90
40289;DHT22;28991;52.028;5.526;2023-04-24T04:40:40;19.20;50.90
40289;DHT22;28991;52.028;5.526;2023-04-24T04:43:06;19.20;50.90
40289;DHT22;28991;52.028;5.526;2023-04-24T04:45:32;19.50;51.00
40289;DHT22;28991;52.028;5.526;2023-04-24T04:48:00;19.20;50.90
40289;DHT22;28991;52.028;5.526;2023-04-24T04:50:28;19.20;50.90
40289;DHT22;28991;52.028;5.526;2023-04-24T04:52:54;19.20;50.90
40289;DHT22;28991;52.028;5.526;2023-04-24T04:55:20;19.20;51.10
40289;DHT22;28991;52.028;5.526;2023-04-24T04:57:48;19.20;51.10
40289;DHT22;28991;52.028;5.526;2023-04-24T05:00:14;19.30;51.30
40289;DHT22;28991;52.028;5.526;2023-04-24T05:02:40;19.20;51.30
40289;DHT22;28991;52.028;5.526;2023-04-24T05:05:07;19.20;51.90
40289;DHT22;28991;52.028;5.526;2023-04-24T05:07:33;19.30;51.60
40289;DHT22;28991;52.028;5.526;2023-04-24T05:09:58;19.30;51.20
40289;DHT22;28991;52.028;5.526;2023-04-24T05:12:24;19.30;51.00
40289;DHT22;28991;52.028;5.526;2023-04-24T05:14:49;19.40;50.70
40289;DHT22;28991;52.028;5.526;2023-04-24T05:17:15;19.50;50.60
40289;DHT22;28991;52.028;5.526;2023-04-24T05:19:42;19.50;50.50
40289;DHT22;28991;52.028;5.526;2023-04-24T05:22:07;19.60;50.60
40289;DHT22;28991;52.028;5.526;2023-04-24T05:24:35;19.60;50.50
40289;DHT22;28991;52.028;5.526;2023-04-24T05:27:04;19.70;50.40
40289;DHT22;28991;52.028;5.526;2023-04-24T05:29:32;19.80;50.40
40289;DHT22;28991;52.028;5.526;2023-04-24T05:31:59;20.40;50.70
40289;DHT22;28991;52.028;5.526;2023-04-24T05:34:24;19.90;50.30
40289;DHT22;28991;52.028;5.526;2023-04-24T05:36:50;19.90;50.00
40289;DHT22;28991;52.028;5.526;2023-04-24T05:39:16;20.00;49.90
40289;DHT22;28991;52.028;5.526;2023-04-24T05:41:42;20.10;49.90
40289;DHT22;28991;52.028;5.526;2023-04-24T05:44:08;20.00;49.80
40289;DHT22;28991;52.028;5.526;2023-04-24T05:46:33;20.10;49.70
40289;DHT22;28991;52.028;5.526;2023-04-24T05:48:59;20.10;49.70
40289;DHT22;28991;52.028;5.526;2023-04-24T05:51:25;20.10;49.60
40289;DHT22;28991;52.028;5.526;2023-04-24T05:53:51;20.10;50.20
40289;DHT22;28991;52.028;5.526;2023-04-24T05:56:17;20.10;49.60
40289;DHT22;28991;52.028;5.526;2023-04-24T05:58:43;20.00;49.60
40289;DHT22;28991;52.028;5.526;2023-04-24T06:01:08;20.10;49.60
40289;DHT22;28991;52.028;5.526;2023-04-24T06:03:35;20.20;49.60
40289;DHT22;28991;52.028;5.526;2023-04-24T06:06:00;20.50;49.70
40289;DHT22;28991;52.028;5.526;2023-04-24T06:08:26;20.10;49.50
40289;DHT22;28991;52.028;5.526;2023-04-24T06:10:51;20.10;49.50
40289;DHT22;28991;52.028;5.526;2023-04-24T06:13:17;20.20;49.60
40289;DHT22;28991;52.028;5.526;2023-04-24T06:15:43;20.20;49.60
40289;DHT22;28991;52.028;5.526;2023-04-24T06:18:09;20.20;49.60
40289;DHT22;28991;52.028;5.526;2023-04-24T06:20:38;20.30;49.60
40289;DHT22;28991;52.028;5.526;2023-04-24T06:23:04;20.10;49.90
40289;DHT22;28991;52.028;5.526;2023-04-24T06:25:29;20.20;49.80
40289;DHT22;28991;52.028;5.526;2023-04-24T06:27:56;20.20;49.80
40289;DHT22;28991;52.028;5.526;2023-04-24T06:30:22;20.10;49.70
40289;DHT22;28991;52.028;5.526;2023-04-24T06:32:48;20.20;49.90
40289;DHT22;28991;52.028;5.526;2023-04-24T06:35:13;20.30;49.80
40289;DHT22;28991;52.028;5.526;2023-04-24T06:37:40;20.30;49.70
40289;DHT22;28991;52.028;5.526;2023-04-24T06:40:06;20.40;49.80
40289;DHT22;28991;52.028;5.526;2023-04-24T06:42:32;20.40;49.80
40289;DHT22;28991;52.028;5.526;2023-04-24T06:44:59;20.40;49.70
40289;DHT22;28991;52.028;5.526;2023-04-24T06:47:24;20.30;49.70
40289;DHT22;28991;52.028;5.526;2023-04-24T06:49:50;20.40;49.80
40289;DHT22;28991;52.028;5.526;2023-04-24T06:52:18;20.40;49.80
40289;DHT22;28991;52.028;5.526;2023-04-24T06:54:43;20.50;49.90
40289;DHT22;28991;52.028;5.526;2023-04-24T06:57:09;20.50;49.70
40289;DHT22;28991;52.028;5.526;2023-04-24T06:59:36;20.50;49.90
40289;DHT22;28991;52.028;5.526;2023-04-24T07:02:02;20.50;50.10
40289;DHT22;28991;52.028;5.526;2023-04-24T07:04:28;20.50;49.80
40289;DHT22;28991;52.028;5.526;2023-04-24T07:06:54;20.50;49.80
40289;DHT22;28991;52.028;5.526;2023-04-24T07:09:22;20.50;49.70
40289;DHT22;28991;52.028;5.526;2023-04-24T07:11:49;20.60;49.80
40289;DHT22;28991;52.028;5.526;2023-04-24T07:14:15;20.60;49.90
40289;DHT22;28991;52.028;5.526;2023-04-24T07:16:41;20.60;50.20
40289;DHT22;28991;52.028;5.526;2023-04-24T07:19:07;20.60;50.20
40289;DHT22;28991;52.028;5.526;2023-04-24T07:21:33;20.60;50.30
40289;DHT22;28991;52.028;5.526;2023-04-24T07:23:58;20.60;50.80
40289;DHT22;28991;52.028;5.526;2023-04-24T07:26:25;20.70;50.50
40289;DHT22;28991;52.028;5.526;2023-04-24T07:28:51;20.70;50.40
40289;DHT22;28991;52.028;5.526;2023-04-24T07:31:16;20.70;50.40
40289;DHT22;28991;52.028;5.526;2023-04-24T07:33:42;20.70;50.50
40289;DHT22;28991;52.028;5.526;2023-04-24T07:36:07;20.70;50.50
40289;DHT22;28991;52.028;5.526;2023-04-24T07:38:33;20.80;50.50
40289;DHT22;28991;52.028;5.526;2023-04-24T07:40:59;20.80;50.50
40289;DHT22;28991;52.028;5.526;2023-04-24T07:43:24;20.80;50.40
40289;DHT22;28991;52.028;5.526;2023-04-24T07:45:51;20.70;50.90
40289;DHT22;28991;52.028;5.526;2023-04-24T07:48:17;20.70;50.50
40289;DHT22;28991;52.028;5.526;2023-04-24T07:50:43;20.80;50.60
40289;DHT22;28991;52.028;5.526;2023-04-24T07:53:09;20.70;50.40
40289;DHT22;28991;52.028;5.526;2023-04-24T07:55:35;20.80;50.50
40289;DHT22;28991;52.028;5.526;2023-04-24T07:58:01;20.70;50.40
40289;DHT22;28991;52.028;5.526;2023-04-24T08:00:26;20.80;50.40
40289;DHT22;28991;52.028;5.526;2023-04-24T08:02:52;20.80;50.30
40289;DHT22;28991;52.028;5.526;2023-04-24T08:05:17;20.80;50.20
40289;DHT22;28991;52.028;5.526;2023-04-24T08:07:45;20.90;50.20
40289;DHT22;28991;52.028;5.526;2023-04-24T08:10:11;21.20;50.30
40289;DHT22;28991;52.028;5.526;2023-04-24T08:12:37;20.90;50.00
40289;DHT22;28991;52.028;5.526;2023-04-24T08:15:04;20.90;50.00
40289;DHT22;28991;52.028;5.526;2023-04-24T08:17:30;20.90;50.00
40289;DHT22;28991;52.028;5.526;2023-04-24T08:19:55;20.90;50.00
40289;DHT22;28991;52.028;5.526;2023-04-24T08:22:27;20.90;50.00
40289;DHT22;28991;52.028;5.526;2023-04-24T08:24:53;20.80;50.00
40289;DHT22;28991;52.028;5.526;2023-04-24T08:27:19;20.80;50.10
40289;DHT22;28991;52.028;5.526;2023-04-24T08:29:44;20.80;50.00
40289;DHT22;28991;52.028;5.526;2023-04-24T08:32:10;20.80;50.10
40289;DHT22;28991;52.028;5.526;2023-04-24T08:34:35;20.90;50.20
40289;DHT22;28991;52.028;5.526;2023-04-24T08:37:01;20.80;50.20
40289;DHT22;28991;52.028;5.526;2023-04-24T08:39:30;20.80;50.20
40289;DHT22;28991;52.028;5.526;2023-04-24T08:41:56;20.80;50.20
40289;DHT22;28991;52.028;5.526;2023-04-24T08:44:22;20.80;50.30
40289;DHT22;28991;52.028;5.526;2023-04-24T08:46:48;20.70;50.20
40289;DHT22;28991;52.028;5.526;2023-04-24T08:49:14;20.70;50.20
40289;DHT22;28991;52.028;5.526;2023-04-24T08:51:44;20.60;50.10
40289;DHT22;28991;52.028;5.526;2023-04-24T08:54:11;20.80;50.20
40289;DHT22;28991;52.028;5.526;2023-04-24T08:56:38;21.10;50.40
40289;DHT22;28991;52.028;5.526;2023-04-24T08:59:06;20.70;50.20
40289;DHT22;28991;52.028;5.526;2023-04-24T09:01:32;20.70;50.20
40289;DHT22;28991;52.028;5.526;2023-04-24T09:04:03;20.80;50.20
40289;DHT22;28991;52.028;5.526;2023-04-24T09:06:30;20.80;50.10
40289;DHT22;28991;52.028;5.526;2023-04-24T09:08:59;20.80;50.00
40289;DHT22;28991;52.028;5.526;2023-04-24T09:11:26;20.90;49.90
40289;DHT22;28991;52.028;5.526;2023-04-24T09:13:53;21.50;50.10
40289;DHT22;28991;52.028;5.526;2023-04-24T09:16:20;20.90;49.60
40289;DHT22;28991;52.028;5.526;2023-04-24T09:18:45;20.90;49.50
40289;DHT22;28991;52.028;5.526;2023-04-24T09:21:11;20.90;49.00
40289;DHT22;28991;52.028;5.526;2023-04-24T09:23:37;20.80;48.90
40289;DHT22;28991;52.028;5.526;2023-04-24T09:26:04;20.90;49.10
40289;DHT22;28991;52.028;5.526;2023-04-24T09:28:38;20.90;49.00
40289;DHT22;28991;52.028;5.526;2023-04-24T09:31:08;20.90;48.90
40289;DHT22;28991;52.028;5.526;2023-04-24T09:33:34;20.90;48.80
40289;DHT22;28991;52.028;5.526;2023-04-24T09:36:00;20.90;48.70
40289;DHT22;28991;52.028;5.526;2023-04-24T09:38:37;21.00;48.70
40289;DHT22;28991;52.028;5.526;2023-04-24T09:41:08;21.00;48.60
40289;DHT22;28991;52.028;5.526;2023-04-24T09:43:34;21.00;48.50
40289;DHT22;28991;52.028;5.526;2023-04-24T09:46:05;21.10;48.40
40289;DHT22;28991;52.028;5.526;2023-04-24T09:48:35;21.00;48.30
40289;DHT22;28991;52.028;5.526;2023-04-24T09:51:03;21.10;48.20
40289;DHT22;28991;52.028;5.526;2023-04-24T09:53:30;21.20;48.30
40289;DHT22;28991;52.028;5.526;2023-04-24T09:56:01;21.20;48.20
40289;DHT22;28991;52.028;5.526;2023-04-24T09:58:28;21.30;48.10
40289;DHT22;28991;52.028;5.526;2023-04-24T10:00:55;21.30;48.10
40289;DHT22;28991;52.028;5.526;2023-04-24T10:03:24;21.30;48.10
40289;DHT22;28991;52.028;5.526;2023-04-24T10:05:52;21.40;48.10
40289;DHT22;28991;52.028;5.526;2023-04-24T10:08:18;21.40;48.10
40289;DHT22;28991;52.028;5.526;2023-04-24T10:10:44;21.40;48.00
40289;DHT22;28991;52.028;5.526;2023-04-24T10:13:12;21.40;48.10
40289;DHT22;28991;52.028;5.526;2023-04-24T10:15:39;21.40;48.20
40289;DHT22;28991;52.028;5.526;2023-04-24T10:18:06;21.40;48.20
40289;DHT22;28991;52.028;5.526;2023-04-24T10:20:34;21.30;48.20
40289;DHT22;28991;52.028;5.526;2023-04-24T10:23:00;21.30;48.00
40289;DHT22;28991;52.028;5.526;2023-04-24T10:25:31;21.20;47.80
40289;DHT22;28991;52.028;5.526;2023-04-24T10:27:58;21.30;48.00
40289;DHT22;28991;52.028;5.526;2023-04-24T10:30:26;21.30;47.90
40289;DHT22;28991;52.028;5.526;2023-04-24T10:32:52;21.30;47.80
40289;DHT22;28991;52.028;5.526;2023-04-24T10:35:19;21.50;47.90
40289;DHT22;28991;52.028;5.526;2023-04-24T10:37:56;21.20;47.50
40289;DHT22;28991;52.028;5.526;2023-04-24T10:40:27;21.30;47.50
40289;DHT22;28991;52.028;5.526;2023-04-24T10:42:56;21.80;47.70
40289;DHT22;28991;52.028;5.526;2023-04-24T10:45:23;21.70;47.50
40289;DHT22;28991;52.028;5.526;2023-04-24T10:47:59;21.20;47.60
40289;DHT22;28991;52.028;5.526;2023-04-24T10:50:27;21.20;47.50
40289;DHT22;28991;52.028;5.526;2023-04-24T10:52:55;21.20;47.50
40289;DHT22;28991;52.028;5.526;2023-04-24T10:55:49;21.20;47.40
40289;DHT22;28991;52.028;5.526;2023-04-24T10:58:16;21.30;47.30
40289;DHT22;28991;52.028;5.526;2023-04-24T11:00:43;21.30;47.10
40289;DHT22;28991;52.028;5.526;2023-04-24T11:03:29;22.00;47.40
40289;DHT22;28991;52.028;5.526;2023-04-24T11:11:10;21.40;46.60
40289;DHT22;28991;52.028;5.526;2023-04-24T11:16:27;21.40;46.50
40289;DHT22;28991;52.028;5.526;2023-04-24T11:22:01;21.40;46.60
40289;DHT22;28991;52.028;5.526;2023-04-24T11:24:50;21.40;46.60
40289;DHT22;28991;52.028;5.526;2023-04-24T11:27:20;21.40;46.50
40289;DHT22;28991;52.028;5.526;2023-04-24T11:32:28;21.40;46.60
40289;DHT22;28991;52.028;5.526;2023-04-24T11:34:56;21.40;46.60
40289;DHT22;28991;52.028;5.526;2023-04-24T11:37:24;21.40;47.20
40289;DHT22;28991;52.028;5.526;2023-04-24T11:39:54;21.40;46.70
40289;DHT22;28991;52.028;5.526;2023-04-24T11:42:21;21.30;46.70
40289;DHT22;28991;52.028;5.526;2023-04-24T11:44:47;21.30;47.40
40289;DHT22;28991;52.028;5.526;2023-04-24T11:47:16;21.20;46.90
40289;DHT22;28991;52.028;5.526;2023-04-24T11:49:42;21.20;47.00
40289;DHT22;28991;52.028;5.526;2023-04-24T11:52:07;21.20;47.00
40289;DHT22;28991;52.028;5.526;2023-04-24T11:54:33;21.20;47.00
40289;DHT22;28991;52.028;5.526;2023-04-24T11:56:59;21.10;47.00
40289;DHT22;28991;52.028;5.526;2023-04-24T11:59:28;21.20;46.90
40289;DHT22;28991;52.028;5.526;2023-04-24T12:01:54;21.20;46.80
40289;DHT22;28991;52.028;5.526;2023-04-24T12:04:20;21.20;46.70
40289;DHT22;28991;52.028;5.526;2023-04-24T12:07:04;21.30;46.60
40289;DHT22;28991;52.028;5.526;2023-04-24T12:09:41;21.70;46.60
40289;DHT22;28991;52.028;5.526;2023-04-24T12:12:07;21.90;47.20
40289;DHT22;28991;52.028;5.526;2023-04-24T12:14:41;21.30;46.00
40289;DHT22;28991;52.028;5.526;2023-04-24T12:17:06;21.30;45.90
40289;DHT22;28991;52.028;5.526;2023-04-24T12:19:32;21.60;45.80
40289;DHT22;28991;52.028;5.526;2023-04-24T12:22:03;21.40;45.70
40289;DHT22;28991;52.028;5.526;2023-04-24T12:24:30;21.40;45.60
40289;DHT22;28991;52.028;5.526;2023-04-24T12:26:56;21.50;45.70
40289;DHT22;28991;52.028;5.526;2023-04-24T12:29:23;21.40;45.60
40289;DHT22;28991;52.028;5.526;2023-04-24T12:31:52;21.50;45.60
40289;DHT22;28991;52.028;5.526;2023-04-24T12:34:22;21.40;45.50
40289;DHT22;28991;52.028;5.526;2023-04-24T12:36:48;21.40;45.50
40289;DHT22;28991;52.028;5.526;2023-04-24T12:39:23;21.40;45.50
40289;DHT22;28991;52.028;5.526;2023-04-24T12:41:58;21.40;45.30
40289;DHT22;28991;52.028;5.526;2023-04-24T12:44:31;21.40;45.20
40289;DHT22;28991;52.028;5.526;2023-04-24T12:46:58;21.50;45.10
40289;DHT22;28991;52.028;5.526;2023-04-24T12:49:23;21.50;44.90
40289;DHT22;28991;52.028;5.526;2023-04-24T12:51:49;21.50;44.60
40289;DHT22;28991;52.028;5.526;2023-04-24T12:54:14;21.50;44.40
40289;DHT22;28991;52.028;5.526;2023-04-24T12:56:40;21.50;44.30
40289;DHT22;28991;52.028;5.526;2023-04-24T12:59:06;21.50;44.00
40289;DHT22;28991;52.028;5.526;2023-04-24T13:01:31;21.60;44.00
40289;DHT22;28991;52.028;5.526;2023-04-24T13:03:57;21.60;44.10
40289;DHT22;28991;52.028;5.526;2023-04-24T13:06:22;21.50;43.90
40289;DHT22;28991;52.028;5.526;2023-04-24T13:08:48;21.50;43.70
40289;DHT22;28991;52.028;5.526;2023-04-24T13:11:14;21.30;43.60
40289;DHT22;28991;52.028;5.526;2023-04-24T13:13:40;21.50;43.60
40289;DHT22;28991;52.028;5.526;2023-04-24T13:16:05;21.50;43.70
40289;DHT22;28991;52.028;5.526;2023-04-24T13:18:31;21.40;43.70
40289;DHT22;28991;52.028;5.526;2023-04-24T13:20:57;21.40;43.60
40289;DHT22;28991;52.028;5.526;2023-04-24T13:23:22;21.40;43.60
40289;DHT22;28991;52.028;5.526;2023-04-24T13:25:48;21.40;43.50
40289;DHT22;28991;52.028;5.526;2023-04-24T13:28:13;21.40;43.30
40289;DHT22;28991;52.028;5.526;2023-04-24T13:30:39;21.40;42.90
40289;DHT22;28991;52.028;5.526;2023-04-24T13:33:05;21.40;42.40
40289;DHT22;28991;52.028;5.526;2023-04-24T13:35:30;21.40;42.40
40289;DHT22;28991;52.028;5.526;2023-04-24T13:37:57;21.40;42.40
40289;DHT22;28991;52.028;5.526;2023-04-24T13:40:23;21.40;42.30
40289;DHT22;28991;52.028;5.526;2023-04-24T13:42:49;21.40;42.30
40289;DHT22;28991;52.028;5.526;2023-04-24T13:45:14;21.50;42.30
40289;DHT22;28991;52.028;5.526;2023-04-24T13:47:40;21.50;42.20
40289;DHT22;28991;52.028;5.526;2023-04-24T13:50:09;21.50;42.20
40289;DHT22;28991;52.028;5.526;2023-04-24T13:52:35;21.40;42.20
40289;DHT22;28991;52.028;5.526;2023-04-24T13:55:00;21.40;41.80
40289;DHT22;28991;52.028;5.526;2023-04-24T13:57:26;21.40;42.30
40289;DHT22;28991;52.028;5.526;2023-04-24T13:59:53;21.40;42.20
40289;DHT22;28991;52.028;5.526;2023-04-24T14:02:20;21.40;42.00
40289;DHT22;28991;52.028;5.526;2023-04-24T14:04:46;21.40;41.40
40289;DHT22;28991;52.028;5.526;2023-04-24T14:07:13;21.80;42.20
40289;DHT22;28991;52.028;5.526;2023-04-24T14:09:39;21.70;42.10
40289;DHT22;28991;52.028;5.526;2023-04-24T14:12:04;21.40;41.90
40289;DHT22;28991;52.028;5.526;2023-04-24T14:14:31;21.40;41.80
40289;DHT22;28991;52.028;5.526;2023-04-24T14:16:57;21.40;41.80
40289;DHT22;28991;52.028;5.526;2023-04-24T14:19:22;21.50;41.80
40289;DHT22;28991;52.028;5.526;2023-04-24T14:21:48;21.40;41.70
40289;DHT22;28991;52.028;5.526;2023-04-24T14:24:13;21.40;41.60
40289;DHT22;28991;52.028;5.526;2023-04-24T14:26:39;21.30;42.20
40289;DHT22;28991;52.028;5.526;2023-04-24T14:29:05;21.30;41.40
40289;DHT22;28991;52.028;5.526;2023-04-24T14:31:31;21.40;41.50
40289;DHT22;28991;52.028;5.526;2023-04-24T14:33:56;21.40;41.60
40289;DHT22;28991;52.028;5.526;2023-04-24T14:36:22;21.30;41.70
40289;DHT22;28991;52.028;5.526;2023-04-24T14:38:49;21.20;42.30
40289;DHT22;28991;52.028;5.526;2023-04-24T14:41:14;21.20;41.80
40289;DHT22;28991;52.028;5.526;2023-04-24T14:43:40;21.20;41.80
40289;DHT22;28991;52.028;5.526;2023-04-24T14:46:06;21.20;41.80
40289;DHT22;28991;52.028;5.526;2023-04-24T14:48:31;21.10;41.80
40289;DHT22;28991;52.028;5.526;2023-04-24T14:50:57;21.10;41.90
40289;DHT22;28991;52.028;5.526;2023-04-24T14:53:23;21.10;42.00
40289;DHT22;28991;52.028;5.526;2023-04-24T14:55:49;21.10;42.00
40289;DHT22;28991;52.028;5.526;2023-04-24T14:58:15;21.20;42.20
40289;DHT22;28991;52.028;5.526;2023-04-24T15:00:40;21.00;42.00
40289;DHT22;28991;52.028;5.526;2023-04-24T15:03:06;21.00;42.20
40289;DHT22;28991;52.028;5.526;2023-04-24T15:05:32;20.90;42.20
40289;DHT22;28991;52.028;5.526;2023-04-24T15:07:58;20.90;42.20
40289;DHT22;28991;52.028;5.526;2023-04-24T15:10:23;20.90;42.30
40289;DHT22;28991;52.028;5.526;2023-04-24T15:12:51;20.90;42.30
40289;DHT22;28991;52.028;5.526;2023-04-24T15:15:16;20.90;42.30
40289;DHT22;28991;52.028;5.526;2023-04-24T15:17:42;20.80;42.30
40289;DHT22;28991;52.028;5.526;2023-04-24T15:20:08;20.90;42.40
40289;DHT22;28991;52.028;5.526;2023-04-24T15:22:34;20.80;42.40
40289;DHT22;28991;52.028;5.526;2023-04-24T15:24:59;20.80;42.40
40289;DHT22;28991;52.028;5.526;2023-04-24T15:27:26;20.80;42.50
40289;DHT22;28991;52.028;5.526;2023-04-24T15:29:51;20.80;42.40
40289;DHT22;28991;52.028;5.526;2023-04-24T15:32:18;20.80;42.50
40289;DHT22;28991;52.028;5.526;2023-04-24T15:34:44;20.80;42.30
40289;DHT22;28991;52.028;5.526;2023-04-24T15:37:10;20.70;42.50
40289;DHT22;28991;52.028;5.526;2023-04-24T15:39:35;20.70;42.60